sensor_id;sensor_type;location;lat;lon;timestamp;pressure;altitude;pressure_sealevel;temperature;humidity
64544;BME280;50936;51.660;5.616;2023-03-14T00:01:23;98606.19;;;10.98;100.00
64544;BME280;50936;51.660;5.616;2023-03-14T00:03:50;98597.38;;;10.88;100.00
64544;BME280;50936;51.660;5.616;2023-03-14T00:06:18;98597.06;;;10.83;100.00
64544;BME280;50936;51.660;5.616;2023-03-14T00:08:45;98578.47;;;10.79;100.00
64544;BME280;50936;51.660;5.616;2023-03-14T00:11:17;98595.03;;;10.85;100.00
64544;BME280;50936;51.660;5.616;2023-03-14T00:13:49;98598.78;;;11.00;100.00
64544;BME280;50936;51.660;5.616;2023-03-14T00:16:18;98581.06;;;11.06;100.00
64544;BME280;50936;51.660;5.616;2023-03-14T00:18:45;98578.88;;;11.09;100.00
64544;BME280;50936;51.660;5.616;2023-03-14T00:21:13;98585.81;;;11.12;100.00
64544;BME280;50936;51.660;5.616;2023-03-14T00:23:41;98581.59;;;11.09;100.00
64544;BME280;50936;51.660;5.616;2023-03-14T00:26:14;98598.13;;;11.06;100.00
64544;BME280;50936;51.660;5.616;2023-03-14T00:28:43;98592.38;;;11.09;100.00
64544;BME280;50936;51.660;5.616;2023-03-14T00:31:15;98609.44;;;11.10;100.00
64544;BME280;50936;51.660;5.616;2023-03-14T00:33:44;98595.25;;;11.08;100.00
64544;BME280;50936;51.660;5.616;2023-03-14T00:36:16;98599.81;;;11.07;100.00
64544;BME280;50936;51.660;5.616;2023-03-14T00:38:45;98607.56;;;11.02;100.00
64544;BME280;50936;51.660;5.616;2023-03-14T00:41:18;98607.56;;;11.02;100.00
64544;BME280;50936;51.660;5.616;2023-03-14T00:43:46;98616.34;;;11.04;100.00
64544;BME280;50936;51.660;5.616;2023-03-14T00:46:14;98610.94;;;11.04;100.00
64544;BME280;50936;51.660;5.616;2023-03-14T00:48:44;98606.22;;;11.06;100.00
64544;BME280;50936;51.660;5.616;2023-03-14T00:51:12;98621.44;;;11.07;100.00
64544;BME280;50936;51.660;5.616;2023-03-14T00:53:43;98629.53;;;11.07;100.00
64544;BME280;50936;51.660;5.616;2023-03-14T00:56:11;98631.56;;;11.05;100.00
64544;BME280;50936;51.660;5.616;2023-03-14T00:58:40;98628.84;;;11.05;100.00
64544;BME280;50936;51.660;5.616;2023-03-14T01:01:09;98616.69;;;11.01;100.00
64544;BME280;50936;51.660;5.616;2023-03-14T01:03:38;98608.59;;;11.01;100.00
64544;BME280;50936;51.660;5.616;2023-03-14T01:06:10;98614.16;;;11.00;100.00
64544;BME280;50936;51.660;5.616;2023-03-14T01:08:42;98607.91;;;10.99;100.00
64544;BME280;50936;51.660;5.616;2023-03-14T01:11:12;98607.19;;;10.97;100.00
64544;BME280;50936;51.660;5.616;2023-03-14T01:13:44;98611.59;;;10.98;100.00
64544;BME280;50936;51.660;5.616;2023-03-14T01:16:13;98597.41;;;10.96;100.00
64544;BME280;50936;51.660;5.616;2023-03-14T01:18:42;98599.44;;;10.94;100.00
64544;BME280;50936;51.660;5.616;2023-03-14T01:21:23;98595.38;;;10.90;100.00
64544;BME280;50936;51.660;5.616;2023-03-14T01:23:54;98604.13;;;10.84;100.00
64544;BME280;50936;51.660;5.616;2023-03-14T01:26:24;98598.72;;;10.84;100.00
64544;BME280;50936;51.660;5.616;2023-03-14T01:28:53;98626.03;;;10.81;100.00
64544;BME280;50936;51.660;5.616;2023-03-14T01:31:23;98608.09;;;10.63;100.00
64544;BME280;50936;51.660;5.616;2023-03-14T01:33:51;98602.97;;;10.52;100.00
64544;BME280;50936;51.660;5.616;2023-03-14T01:36:18;98596.91;;;10.50;100.00
64544;BME280;50936;51.660;5.616;2023-03-14T01:38:46;98599.94;;;10.55;100.00
64544;BME280;50936;51.660;5.616;2023-03-14T01:41:20;98584.16;;;10.68;100.00
64544;BME280;50936;51.660;5.616;2023-03-14T01:43:52;98582.34;;;10.77;100.00
64544;BME280;50936;51.660;5.616;2023-03-14T01:46:28;98586.56;;;10.79;100.00
64544;BME280;50936;51.660;5.616;2023-03-14T01:51:56;98566.09;;;10.69;100.00
64544;BME280;50936;51.660;5.616;2023-03-14T01:54:32;98571.44;;;10.52;100.00
64544;BME280;50936;51.660;5.616;2023-03-14T01:57:17;98557.06;;;10.44;100.00
64544;BME280;50936;51.660;5.616;2023-03-14T01:59:58;98563.31;;;10.44;100.00
64544;BME280;50936;51.660;5.616;2023-03-14T02:02:44;98561.13;;;10.48;100.00
64544;BME280;50936;51.660;5.616;2023-03-14T02:05:32;98558.25;;;10.49;100.00
64544;BME280;50936;51.660;5.616;2023-03-14T02:08:18;98556.75;;;10.55;100.00
64544;BME280;50936;51.660;5.616;2023-03-14T02:10:50;98555.91;;;10.54;100.00
64544;BME280;50936;51.660;5.616;2023-03-14T02:13:38;98562.44;;;10.44;100.00
64544;BME280;50936;51.660;5.616;2023-03-14T02:16:23;98557.88;;;10.36;100.00
64544;BME280;50936;51.660;5.616;2023-03-14T02:19:38;98566.13;;;10.34;100.00
64544;BME280;50936;51.660;5.616;2023-03-14T02:22:38;98555.94;;;10.28;100.00
64544;BME280;50936;51.660;5.616;2023-03-14T02:27:58;98563.66;;;10.23;100.00
64544;BME280;50936;51.660;5.616;2023-03-14T02:30:29;98570.75;;;10.24;100.00
64544;BME280;50936;51.660;5.616;2023-03-14T02:33:01;98565.47;;;10.14;100.00
64544;BME280;50936;51.660;5.616;2023-03-14T02:35:41;98555.09;;;10.01;100.00
64544;BME280;50936;51.660;5.616;2023-03-14T02:38:19;98554.38;;;9.91;100.00
64544;BME280;50936;51.660;5.616;2023-03-14T02:40:55;98555.00;;;9.85;100.00
64544;BME280;50936;51.660;5.616;2023-03-14T02:43:22;98547.09;;;9.83;100.00
64544;BME280;50936;51.660;5.616;2023-03-14T02:45:56;98550.13;;;9.89;100.00
64544;BME280;50936;51.660;5.616;2023-03-14T02:48:37;98553.72;;;9.97;100.00
64544;BME280;50936;51.660;5.616;2023-03-14T02:51:23;98547.53;;;10.05;100.00
64544;BME280;50936;51.660;5.616;2023-03-14T02:53:52;98547.78;;;10.20;100.00
64544;BME280;50936;51.660;5.616;2023-03-14T02:56:21;98558.63;;;10.28;100.00
64544;BME280;50936;51.660;5.616;2023-03-14T02:58:48;98542.84;;;10.33;100.00
64544;BME280;50936;51.660;5.616;2023-03-14T03:01:45;98552.00;;;10.40;100.00
64544;BME280;50936;51.660;5.616;2023-03-14T03:04:12;98537.47;;;10.42;100.00
64544;BME280;50936;51.660;5.616;2023-03-14T03:06:39;98547.28;;;10.43;100.00
64544;BME280;50936;51.660;5.616;2023-03-14T03:09:06;98532.75;;;10.44;100.00
64544;BME280;50936;51.660;5.616;2023-03-14T03:11:33;98539.88;;;10.45;100.00
64544;BME280;50936;51.660;5.616;2023-03-14T03:14:00;98548.63;;;10.47;100.00
64544;BME280;50936;51.660;5.616;2023-03-14T03:16:28;98550.34;;;10.48;100.00
64544;BME280;50936;51.660;5.616;2023-03-14T03:18:55;98546.94;;;10.46;100.00
64544;BME280;50936;51.660;5.616;2023-03-14T03:21:22;98554.03;;;10.47;100.00
64544;BME280;50936;51.660;5.616;2023-03-14T03:23:50;98548.31;;;10.50;100.00
64544;BME280;50936;51.660;5.616;2023-03-14T03:26:17;98554.56;;;10.50;100.00
64544;BME280;50936;51.660;5.616;2023-03-14T03:28:44;98544.59;;;10.51;100.00
64544;BME280;50936;51.660;5.616;2023-03-14T03:31:13;98540.91;;;10.52;100.00
64544;BME280;50936;51.660;5.616;2023-03-14T03:33:41;98537.19;;;10.53;100.00
64544;BME280;50936;51.660;5.616;2023-03-14T03:36:08;98538.22;;;10.52;100.00
64544;BME280;50936;51.660;5.616;2023-03-14T03:38:38;98537.38;;;10.51;100.00
64544;BME280;50936;51.660;5.616;2023-03-14T03:41:06;98528.41;;;10.51;100.00
64544;BME280;50936;51.660;5.616;2023-03-14T03:43:36;98537.19;;;10.53;100.00
64544;BME280;50936;51.660;5.616;2023-03-14T03:46:06;98539.19;;;10.51;100.00
64544;BME280;50936;51.660;5.616;2023-03-14T03:48:34;98523.00;;;10.51;100.00
64544;BME280;50936;51.660;5.616;2023-03-14T03:51:04;98530.44;;;10.49;100.00
64544;BME280;50936;51.660;5.616;2023-03-14T03:53:32;98526.06;;;10.48;100.00
64544;BME280;50936;51.660;5.616;2023-03-14T03:56:08;98524.50;;;10.45;100.00
64544;BME280;50936;51.660;5.616;2023-03-14T03:58:36;98521.66;;;10.47;100.00
64544;BME280;50936;51.660;5.616;2023-03-14T04:01:06;98528.75;;;10.48;100.00
64544;BME280;50936;51.660;5.616;2023-03-14T04:03:34;98512.72;;;10.46;100.00
64544;BME280;50936;51.660;5.616;2023-03-14T04:06:05;98521.97;;;10.44;100.00
64544;BME280;50936;51.660;5.616;2023-03-14T04:08:37;98513.19;;;10.42;100.00
64544;BME280;50936;51.660;5.616;2023-03-14T04:11:07;98514.38;;;10.39;100.00
64544;BME280;50936;51.660;5.616;2023-03-14T04:13:52;98520.59;;;10.39;100.00
64544;BME280;50936;51.660;5.616;2023-03-14T04:16:22;98515.22;;;10.39;100.00
64544;BME280;50936;51.660;5.616;2023-03-14T04:18:57;98512.50;;;10.39;100.00
64544;BME280;50936;51.660;5.616;2023-03-14T04:21:25;98515.22;;;10.39;100.00
64544;BME280;50936;51.660;5.616;2023-03-14T04:23:55;98510.81;;;10.38;100.00
64544;BME280;50936;51.660;5.616;2023-03-14T04:26:24;98508.72;;;10.24;100.00
64544;BME280;50936;51.660;5.616;2023-03-14T04:28:51;98513.34;;;10.06;100.00
64544;BME280;50936;51.660;5.616;2023-03-14T04:31:21;98510.38;;;9.91;100.00
64544;BME280;50936;51.660;5.616;2023-03-14T04:33:51;98515.56;;;9.84;100.00
64544;BME280;50936;51.660;5.616;2023-03-14T04:36:25;98521.59;;;9.78;100.00
64544;BME280;50936;51.660;5.616;2023-03-14T04:38:52;98516.53;;;9.75;100.00
64544;BME280;50936;51.660;5.616;2023-03-14T04:41:20;98519.22;;;9.75;100.00
64544;BME280;50936;51.660;5.616;2023-03-14T04:43:51;98510.13;;;9.76;100.00
64544;BME280;50936;51.660;5.616;2023-03-14T04:46:18;98503.44;;;9.80;100.00
64544;BME280;50936;51.660;5.616;2023-03-14T04:48:45;98512.19;;;9.82;100.00
64544;BME280;50936;51.660;5.616;2023-03-14T04:51:13;98508.47;;;9.83;100.00
64544;BME280;50936;51.660;5.616;2023-03-14T04:53:40;98506.28;;;9.78;100.00
64544;BME280;50936;51.660;5.616;2023-03-14T04:56:10;98498.50;;;9.75;100.00
64544;BME280;50936;51.660;5.616;2023-03-14T04:58:41;98503.72;;;9.77;100.00
64544;BME280;50936;51.660;5.616;2023-03-14T05:01:09;98504.69;;;9.68;100.00
64544;BME280;50936;51.660;5.616;2023-03-14T05:04:06;98493.78;;;9.51;100.00
64544;BME280;50936;51.660;5.616;2023-03-14T05:06:56;98506.66;;;9.39;100.00
64544;BME280;50936;51.660;5.616;2023-03-14T05:09:35;98503.75;;;9.33;100.00
64544;BME280;50936;51.660;5.616;2023-03-14T05:12:18;98504.34;;;9.27;100.00
64544;BME280;50936;51.660;5.616;2023-03-14T05:15:02;98505.38;;;9.25;100.00
64544;BME280;50936;51.660;5.616;2023-03-14T05:17:54;98507.69;;;9.20;100.00
64544;BME280;50936;51.660;5.616;2023-03-14T05:20:39;98492.44;;;9.11;100.00
64544;BME280;50936;51.660;5.616;2023-03-14T05:23:41;98504.44;;;8.99;100.00
64544;BME280;50936;51.660;5.616;2023-03-14T05:26:28;98491.91;;;8.90;100.00
64544;BME280;50936;51.660;5.616;2023-03-14T05:29:18;98495.22;;;8.83;100.00
64544;BME280;50936;51.660;5.616;2023-03-14T05:32:17;98488.63;;;8.78;100.00
64544;BME280;50936;51.660;5.616;2023-03-14T05:34:57;98485.38;;;8.74;100.00
64544;BME280;50936;51.660;5.616;2023-03-14T05:37:49;98478.63;;;8.70;100.00
64544;BME280;50936;51.660;5.616;2023-03-14T05:40:28;98482.28;;;8.69;100.00
64544;BME280;50936;51.660;5.616;2023-03-14T05:43:27;98489.38;;;8.70;100.00
64544;BME280;50936;51.660;5.616;2023-03-14T05:46:09;98485.69;;;8.71;100.00
64544;BME280;50936;51.660;5.616;2023-03-14T05:49:02;98480.97;;;8.73;100.00
64544;BME280;50936;51.660;5.616;2023-03-14T05:51:39;98465.53;;;8.75;100.00
64544;BME280;50936;51.660;5.616;2023-03-14T05:54:44;98477.69;;;8.79;100.00
64544;BME280;50936;51.660;5.616;2023-03-14T05:57:31;98462.53;;;8.78;100.00
64544;BME280;50936;51.660;5.616;2023-03-14T06:00:17;98461.56;;;8.79;100.00
64544;BME280;50936;51.660;5.616;2023-03-14T06:02:55;98462.94;;;8.83;100.00
64544;BME280;50936;51.660;5.616;2023-03-14T06:05:27;98466.00;;;8.89;100.00
64544;BME280;50936;51.660;5.616;2023-03-14T06:07:59;98462.00;;;8.93;100.00
64544;BME280;50936;51.660;5.616;2023-03-14T06:10:30;98461.69;;;8.96;100.00
64544;BME280;50936;51.660;5.616;2023-03-14T06:12:57;98466.75;;;8.99;100.00
64544;BME280;50936;51.660;5.616;2023-03-14T06:15:24;98464.59;;;9.02;100.00
64544;BME280;50936;51.660;5.616;2023-03-14T06:17:55;98469.53;;;9.07;100.00
64544;BME280;50936;51.660;5.616;2023-03-14T06:20:23;98476.28;;;9.11;100.00
64544;BME280;50936;51.660;5.616;2023-03-14T06:22:50;98479.38;;;9.16;100.00
64544;BME280;50936;51.660;5.616;2023-03-14T06:25:17;98478.34;;;9.17;100.00
64544;BME280;50936;51.660;5.616;2023-03-14T06:27:46;98482.06;;;9.16;100.00
64544;BME280;50936;51.660;5.616;2023-03-14T06:30:14;98477.38;;;9.18;100.00
64544;BME280;50936;51.660;5.616;2023-03-14T06:32:42;98481.72;;;9.19;100.00
64544;BME280;50936;51.660;5.616;2023-03-14T06:35:12;98481.59;;;9.21;100.00
64544;BME280;50936;51.660;5.616;2023-03-14T06:37:42;98484.13;;;9.22;100.00
64544;BME280;50936;51.660;5.616;2023-03-14T06:40:10;98483.81;;;9.25;100.00
64544;BME280;50936;51.660;5.616;2023-03-14T06:43:06;98487.50;;;9.24;100.00
64544;BME280;50936;51.660;5.616;2023-03-14T06:45:35;98491.22;;;9.23;100.00
64544;BME280;50936;51.660;5.616;2023-03-14T06:48:02;98491.22;;;9.23;100.00
64544;BME280;50936;51.660;5.616;2023-03-14T06:50:37;98484.13;;;9.22;100.00
64544;BME280;50936;51.660;5.616;2023-03-14T06:53:04;98497.59;;;9.22;100.00
64544;BME280;50936;51.660;5.616;2023-03-14T06:55:33;98494.06;;;9.22;100.00
64544;BME280;50936;51.660;5.616;2023-03-14T06:58:00;98494.59;;;9.25;100.00
64544;BME280;50936;51.660;5.616;2023-03-14T07:00:27;98497.69;;;9.31;100.00
64544;BME280;50936;51.660;5.616;2023-03-14T07:02:56;98502.44;;;9.37;100.00
64544;BME280;50936;51.660;5.616;2023-03-14T07:05:33;98506.84;;;9.38;100.00
64544;BME280;50936;51.660;5.616;2023-03-14T07:08:00;98505.81;;;9.39;100.00
64544;BME280;50936;51.660;5.616;2023-03-14T07:10:27;98505.81;;;9.39;100.00
64544;BME280;50936;51.660;5.616;2023-03-14T07:12:54;98502.13;;;9.40;100.00
64544;BME280;50936;51.660;5.616;2023-03-14T07:15:25;98508.50;;;9.39;100.00
64544;BME280;50936;51.660;5.616;2023-03-14T07:17:56;98517.59;;;9.38;100.00
64544;BME280;50936;51.660;5.616;2023-03-14T07:20:24;98513.50;;;9.34;100.00
64544;BME280;50936;51.660;5.616;2023-03-14T07:22:51;98522.91;;;9.30;100.00
64544;BME280;50936;51.660;5.616;2023-03-14T07:25:28;98520.50;;;9.27;100.00
64544;BME280;50936;51.660;5.616;2023-03-14T07:27:56;98545.09;;;9.23;100.00
64544;BME280;50936;51.660;5.616;2023-03-14T07:30:23;98584.84;;;9.12;100.00
64544;BME280;50936;51.660;5.616;2023-03-14T07:32:50;98584.25;;;8.72;100.00
64544;BME280;50936;51.660;5.616;2023-03-14T07:35:22;98625.47;;;8.35;100.00
64544;BME280;50936;51.660;5.616;2023-03-14T07:37:49;98622.41;;;8.10;100.00
64544;BME280;50936;51.660;5.616;2023-03-14T07:40:20;98627.53;;;7.94;100.00
64544;BME280;50936;51.660;5.616;2023-03-14T07:42:47;98635.75;;;7.83;100.00
64544;BME280;50936;51.660;5.616;2023-03-14T07:45:23;98647.09;;;7.77;100.00
64544;BME280;50936;51.660;5.616;2023-03-14T07:47:50;98656.69;;;7.69;100.00
64544;BME280;50936;51.660;5.616;2023-03-14T07:50:17;98667.72;;;7.66;100.00
64544;BME280;50936;51.660;5.616;2023-03-14T07:52:45;98671.97;;;7.59;100.00
64544;BME280;50936;51.660;5.616;2023-03-14T07:55:12;98675.94;;;7.55;100.00
64544;BME280;50936;51.660;5.616;2023-03-14T07:57:40;98692.00;;;7.45;100.00
64544;BME280;50936;51.660;5.616;2023-03-14T08:00:08;98695.41;;;7.38;100.00
64544;BME280;50936;51.660;5.616;2023-03-14T08:02:38;98708.38;;;7.32;100.00
64544;BME280;50936;51.660;5.616;2023-03-14T08:05:05;98713.19;;;7.29;100.00
64544;BME280;50936;51.660;5.616;2023-03-14T08:07:33;98714.59;;;7.23;100.00
64544;BME280;50936;51.660;5.616;2023-03-14T08:10:00;98727.16;;;7.23;100.00
64544;BME280;50936;51.660;5.616;2023-03-14T08:12:27;98737.06;;;7.22;100.00
64544;BME280;50936;51.660;5.616;2023-03-14T08:14:54;98738.03;;;7.21;100.00
64544;BME280;50936;51.660;5.616;2023-03-14T08:17:21;98748.50;;;7.24;100.00
64544;BME280;50936;51.660;5.616;2023-03-14T08:19:47;98760.97;;;7.25;100.00
64544;BME280;50936;51.660;5.616;2023-03-14T08:22:14;98777.91;;;7.26;100.00
64544;BME280;50936;51.660;5.616;2023-03-14T08:24:45;98788.53;;;7.27;100.00
64544;BME280;50936;51.660;5.616;2023-03-14T08:27:12;98787.97;;;7.33;100.00
64544;BME280;50936;51.660;5.616;2023-03-14T08:29:41;98791.81;;;7.41;100.00
64544;BME280;50936;51.660;5.616;2023-03-14T08:32:08;98819.13;;;7.46;100.00
64544;BME280;50936;51.660;5.616;2023-03-14T08:34:35;98818.69;;;7.50;100.00
64544;BME280;50936;51.660;5.616;2023-03-14T08:37:05;98826.34;;;7.55;100.00
64544;BME280;50936;51.660;5.616;2023-03-14T08:39:48;98830.00;;;7.54;100.00
64544;BME280;50936;51.660;5.616;2023-03-14T08:42:15;98841.06;;;7.51;100.00
64544;BME280;50936;51.660;5.616;2023-03-14T08:44:43;98853.34;;;7.54;100.00
64544;BME280;50936;51.660;5.616;2023-03-14T08:47:10;98862.53;;;7.51;100.00
64544;BME280;50936;51.660;5.616;2023-03-14T08:49:37;98869.16;;;7.47;100.00
64544;BME280;50936;51.660;5.616;2023-03-14T08:52:04;98878.94;;;7.48;100.00
64544;BME280;50936;51.660;5.616;2023-03-14T08:54:31;98879.19;;;7.45;100.00
64544;BME280;50936;51.660;5.616;2023-03-14T08:56:58;98883.97;;;7.41;100.00
64544;BME280;50936;51.660;5.616;2023-03-14T08:59:25;98900.38;;;7.38;100.00
64544;BME280;50936;51.660;5.616;2023-03-14T09:01:52;98903.19;;;7.37;100.00
64544;BME280;50936;51.660;5.616;2023-03-14T09:04:21;98909.53;;;7.36;100.00
64544;BME280;50936;51.660;5.616;2023-03-14T09:06:48;98927.75;;;7.32;100.00
64544;BME280;50936;51.660;5.616;2023-03-14T09:09:15;98924.94;;;7.33;100.00
64544;BME280;50936;51.660;5.616;2023-03-14T09:11:42;98939.06;;;7.36;100.00
64544;BME280;50936;51.660;5.616;2023-03-14T09:14:09;98956.03;;;7.36;100.00
64544;BME280;50936;51.660;5.616;2023-03-14T09:16:35;98956.38;;;7.43;100.00
64544;BME280;50936;51.660;5.616;2023-03-14T09:19:02;98974.63;;;7.49;100.00
64544;BME280;50936;51.660;5.616;2023-03-14T09:21:29;99001.66;;;7.47;100.00
64544;BME280;50936;51.660;5.616;2023-03-14T09:23:56;99012.25;;;7.28;100.00
64544;BME280;50936;51.660;5.616;2023-03-14T09:26:23;99036.91;;;7.01;100.00
64544;BME280;50936;51.660;5.616;2023-03-14T09:28:50;99048.81;;;6.75;100.00
64544;BME280;50936;51.660;5.616;2023-03-14T09:31:17;99058.00;;;6.62;100.00
64544;BME280;50936;51.660;5.616;2023-03-14T09:33:44;99070.44;;;6.51;100.00
64544;BME280;50936;51.660;5.616;2023-03-14T09:36:11;99076.66;;;6.41;100.00
64544;BME280;50936;51.660;5.616;2023-03-14T09:38:39;99087.91;;;6.34;100.00
64544;BME280;50936;51.660;5.616;2023-03-14T09:41:31;99094.09;;;6.35;100.00
64544;BME280;50936;51.660;5.616;2023-03-14T09:46:38;99121.38;;;6.63;100.00
64544;BME280;50936;51.660;5.616;2023-03-14T09:49:16;99137.22;;;6.77;100.00
64544;BME280;50936;51.660;5.616;2023-03-14T09:51:51;99147.50;;;6.83;100.00
64544;BME280;50936;51.660;5.616;2023-03-14T09:54:26;99148.44;;;6.93;100.00
64544;BME280;50936;51.660;5.616;2023-03-14T09:56:59;99158.91;;;7.08;100.00
64544;BME280;50936;51.660;5.616;2023-03-14T09:59:27;99170.09;;;7.24;100.00
64544;BME280;50936;51.660;5.616;2023-03-14T10:02:00;99184.09;;;7.28;100.00
64544;BME280;50936;51.660;5.616;2023-03-14T10:04:38;99197.66;;;7.26;100.00
64544;BME280;50936;51.660;5.616;2023-03-14T10:07:36;99213.53;;;7.29;100.00
64544;BME280;50936;51.660;5.616;2023-03-14T10:10:10;99225.13;;;7.30;100.00
64544;BME280;50936;51.660;5.616;2023-03-14T10:12:39;99249.16;;;7.31;100.00
64544;BME280;50936;51.660;5.616;2023-03-14T10:15:13;99247.22;;;7.33;100.00
64544;BME280;50936;51.660;5.616;2023-03-14T10:17:48;99273.72;;;7.38;100.00
64544;BME280;50936;51.660;5.616;2023-03-14T10:20:37;99286.03;;;7.29;100.00
64544;BME280;50936;51.660;5.616;2023-03-14T10:25:44;99291.91;;;7.35;100.00
64544;BME280;50936;51.660;5.616;2023-03-14T10:28:28;99319.50;;;7.37;100.00
64544;BME280;50936;51.660;5.616;2023-03-14T10:31:06;99320.44;;;7.47;100.00
64544;BME280;50936;51.660;5.616;2023-03-14T10:33:36;99332.66;;;7.62;100.00
64544;BME280;50936;51.660;5.616;2023-03-14T10:38:50;99359.09;;;7.78;100.00
64544;BME280;50936;51.660;5.616;2023-03-14T10:41:25;99366.56;;;7.86;100.00
64544;BME280;50936;51.660;5.616;2023-03-14T10:43:57;99367.84;;;8.03;100.00
64544;BME280;50936;51.660;5.616;2023-03-14T10:46:30;99376.53;;;8.06;100.00
64544;BME280;50936;51.660;5.616;2023-03-14T10:49:28;99392.53;;;8.08;100.00
64544;BME280;50936;51.660;5.616;2023-03-14T10:52:14;99401.38;;;8.31;100.00
64544;BME280;50936;51.660;5.616;2023-03-14T10:54:46;99410.91;;;8.46;100.00
64544;BME280;50936;51.660;5.616;2023-03-14T10:57:15;99420.91;;;8.56;100.00
64544;BME280;50936;51.660;5.616;2023-03-14T10:59:43;99420.38;;;8.62;100.00
64544;BME280;50936;51.660;5.616;2023-03-14T11:05:31;99452.44;;;8.86;100.00
64544;BME280;50936;51.660;5.616;2023-03-14T11:10:50;99474.75;;;9.09;100.00
64544;BME280;50936;51.660;5.616;2023-03-14T11:13:32;99471.56;;;9.04;100.00
64544;BME280;50936;51.660;5.616;2023-03-14T11:16:16;99488.41;;;8.96;100.00
64544;BME280;50936;51.660;5.616;2023-03-14T11:30:23;99555.50;;;7.06;100.00
64544;BME280;50936;51.660;5.616;2023-03-14T11:33:20;99556.19;;;6.97;100.00
64544;BME280;50936;51.660;5.616;2023-03-14T11:36:07;99568.81;;;7.07;100.00
64544;BME280;50936;51.660;5.616;2023-03-14T11:38:46;99589.97;;;7.23;100.00
64544;BME280;50936;51.660;5.616;2023-03-14T11:41:28;99588.81;;;7.39;100.00
64544;BME280;50936;51.660;5.616;2023-03-14T11:44:04;99597.88;;;7.49;100.00
64544;BME280;50936;51.660;5.616;2023-03-14T11:46:51;99599.63;;;7.61;100.00
64544;BME280;50936;51.660;5.616;2023-03-14T11:52:22;99622.13;;;7.71;100.00
64544;BME280;50936;51.660;5.616;2023-03-14T11:54:59;99620.41;;;7.70;100.00
64544;BME280;50936;51.660;5.616;2023-03-14T11:57:31;99629.31;;;7.71;100.00
64544;BME280;50936;51.660;5.616;2023-03-14T12:13:20;99672.22;;;6.76;100.00
64544;BME280;50936;51.660;5.616;2023-03-14T12:15:56;99683.78;;;6.89;100.00
64544;BME280;50936;51.660;5.616;2023-03-14T12:18:35;99692.25;;;7.20;100.00
64544;BME280;50936;51.660;5.616;2023-03-14T12:21:11;99703.84;;;7.69;100.00
64544;BME280;50936;51.660;5.616;2023-03-14T12:23:44;99708.75;;;8.10;100.00
64544;BME280;50936;51.660;5.616;2023-03-14T12:26:19;99709.41;;;8.37;100.00
64544;BME280;50936;51.660;5.616;2023-03-14T12:42:45;99724.03;;;9.57;100.00
64544;BME280;50936;51.660;5.616;2023-03-14T12:45:31;99733.06;;;10.20;100.00
64544;BME280;50936;51.660;5.616;2023-03-14T12:48:30;99737.16;;;10.88;96.58
64544;BME280;50936;51.660;5.616;2023-03-14T12:51:03;99735.19;;;11.40;84.64
64544;BME280;50936;51.660;5.616;2023-03-14T12:53:56;99742.91;;;11.54;89.59
64544;BME280;50936;51.660;5.616;2023-03-14T13:02:38;99764.63;;;11.93;66.48
64544;BME280;50936;51.660;5.616;2023-03-14T13:05:10;99762.47;;;11.87;61.23
64544;BME280;50936;51.660;5.616;2023-03-14T13:13:02;99787.03;;;11.65;61.65
64544;BME280;50936;51.660;5.616;2023-03-14T13:15:39;99813.53;;;11.71;63.75
64544;BME280;50936;51.660;5.616;2023-03-14T13:18:45;99800.06;;;11.90;56.94
64544;BME280;50936;51.660;5.616;2023-03-14T13:21:18;99807.22;;;12.11;55.33
64544;BME280;50936;51.660;5.616;2023-03-14T13:26:23;99823.03;;;12.45;55.09
64544;BME280;50936;51.660;5.616;2023-03-14T13:28:58;99834.69;;;12.45;46.38
64544;BME280;50936;51.660;5.616;2023-03-14T13:31:25;99829.44;;;12.24;48.72
64544;BME280;50936;51.660;5.616;2023-03-14T13:34:05;99843.25;;;12.21;51.93
64544;BME280;50936;51.660;5.616;2023-03-14T13:36:35;99842.13;;;12.33;50.57
64544;BME280;50936;51.660;5.616;2023-03-14T13:39:06;99844.13;;;12.51;49.13
64544;BME280;50936;51.660;5.616;2023-03-14T13:41:42;99864.91;;;12.70;47.77
64544;BME280;50936;51.660;5.616;2023-03-14T13:44:16;99859.91;;;12.85;48.99
64544;BME280;50936;51.660;5.616;2023-03-14T13:46:48;99864.16;;;12.97;45.60
64544;BME280;50936;51.660;5.616;2023-03-14T13:49:22;99878.28;;;12.91;44.65
64544;BME280;50936;51.660;5.616;2023-03-14T13:51:51;99886.28;;;12.83;43.34
64544;BME280;50936;51.660;5.616;2023-03-14T13:54:20;99875.19;;;12.86;43.89
64544;BME280;50936;51.660;5.616;2023-03-14T13:57:02;99891.72;;;12.83;42.97
64544;BME280;50936;51.660;5.616;2023-03-14T13:59:33;99888.16;;;12.73;44.89
64544;BME280;50936;51.660;5.616;2023-03-14T14:02:09;99906.56;;;12.59;47.17
64544;BME280;50936;51.660;5.616;2023-03-14T14:04:43;99895.13;;;12.85;45.47
64544;BME280;50936;51.660;5.616;2023-03-14T14:07:15;99921.03;;;13.17;44.93
64544;BME280;50936;51.660;5.616;2023-03-14T14:09:49;99925.84;;;13.42;43.17
64544;BME280;50936;51.660;5.616;2023-03-14T14:15:07;99954.94;;;13.60;46.58
64544;BME280;50936;51.660;5.616;2023-03-14T14:17:50;99956.34;;;13.64;44.78
64544;BME280;50936;51.660;5.616;2023-03-14T14:20:29;99978.13;;;13.44;41.57
64544;BME280;50936;51.660;5.616;2023-03-14T14:23:15;99970.44;;;12.91;40.84
64544;BME280;50936;51.660;5.616;2023-03-14T14:25:52;99986.66;;;12.52;43.14
64544;BME280;50936;51.660;5.616;2023-03-14T14:28:30;99997.75;;;12.29;45.23
64544;BME280;50936;51.660;5.616;2023-03-14T14:33:44;100004.84;;;12.30;44.77
64544;BME280;50936;51.660;5.616;2023-03-14T14:36:25;100017.72;;;12.38;43.73
64544;BME280;50936;51.660;5.616;2023-03-14T14:39:11;100027.72;;;12.07;42.30
64544;BME280;50936;51.660;5.616;2023-03-14T14:41:44;100031.84;;;11.59;42.05
64544;BME280;50936;51.660;5.616;2023-03-14T14:44:18;100037.34;;;11.27;42.33
64544;BME280;50936;51.660;5.616;2023-03-14T14:46:55;100038.63;;;11.11;42.79
64544;BME280;50936;51.660;5.616;2023-03-14T14:49:30;100047.31;;;10.94;44.85
64544;BME280;50936;51.660;5.616;2023-03-14T14:52:19;100066.25;;;10.71;43.80